Grantley Adams, Barbados

3:40 AM AST on September 03, 2014 (GMT -0400)
Grantley Adams International | Change Station
CLOSE
Current Station
Airport
Location: Grantley Adams,
Elevation: 184 ft
Nearby Weather Stations

Elev 184 ft 13.07 °N, 59.49 °W | Updated 40 minutes ago

Scattered Clouds
Scattered Clouds
81 °F
Feels Like 86 °F
N
16
Wind Variable Wind from ENE

Today
High -- | Low -- °F
--% Chance of Precip.
Yesterday
High -- | Low -- °F
Precip. -- in
5:46 AM 6:07 PM
First Quarter, 59% visible
Pressure 29.86 in
Visibility 6.2 miles
Clouds Scattered Clouds 2200 ft
Scattered Clouds 30000 ft
Heat Index 86 °F
Dew Point 75 °F
Humidity 84%
Rainfall 0.00 in
Snow Depth Not available.
UV 0 out of 12
Pollen Not available.
Air Quality Not available.
Flu Activity Not available.
METAR TBPB 030700Z 07014KT 9999 SCT022 SCT300 27/24 Q1011 NOSIG

More Conditions Fewer Conditions

Pressure 29.86 in
Visibility 6.2 miles
Clouds Scattered Clouds 2200 ft
Scattered Clouds 30000 ft
Heat Index 86 °F
Dew Point 75 °F
Humidity 84%
Rainfall 0.00 in
Snow Depth Not available.
UV 0 out of 12
Pollen Not available.
Air Quality Not available.
Flu Activity Not available.
METAR TBPB 030700Z 07014KT 9999 SCT022 SCT300 27/24 Q1011 NOSIG

More Conditions Fewer Conditions

10-Day Weather Forecast

Almanac

Astronomy

Sep. 03, 2014 Rise Set
Actual Time 5:46 AM AST 6:07 PM AST
Civil Twilight 5:25 AM AST 6:28 PM AST
Nautical Twilight 5:00 AM AST 6:53 PM AST
Astronomical Twilight 4:35 AM AST 7:19 PM AST
Moon 1:13 PM AST 12:06 AM AST
Length of Visible Light 13h 03m
Length of Day
12h 20m
Tomorrow will be 0m 42s shorter.
First Quarter, 59% of the Moon is Illuminated
Today
First Quarter
Sep 8
Full
Sep 15
Last Quarter
Sep 24
New
Oct 1
First Quarter

Yesterday's Extremes

Country Highs Country Lows

Community

WunderPhotos

Upload Photos

1,749,899 photos uploaded!

Nearby

Snow Depth

Not available.

Earthquake Activity

City Distance Mag. Time & Date
No recent earthquake activity has been reported nearby.
Minimum magnitude displayed is 2.5.

Coastal Water Temperatures

Place Temperature
No Stations Reporting

Nearby Weather Stations